Kingston, Michigan
Current Conditions -  °F | °C
As of 8:15 PM on Saturday 25 Oct 2014 (Local Time) from KCFS Reporting Station
Clear Clear  
Wind Chill: 51°   Ceiling: Unl
Heat Index: 51°   Visibility: 10mi
Dew Point: 35°   Wind: 6mph
Humidity: 54%   Direction: 270°W
Pressure: 29.75"   Gusts: NA
Location:  43.41°N, 83.19°W
Report Text: KCFS 260015Z AUTO 27005KT 10SM CLR 11/02 A2975 RMK AO2 T01060015
Loading
Personal Weather Stations






























Interactive Weather Map
Tropical Storm Tracking
New forecast layout! Learn more

10-Day Weather Forecast

Advertisements
Track Severe Weather on mobile